<?xml version="1.0" encoding="UTF-8" standalone="no" ?>
<gpx xmlns="http://www.topografix.com/GPX/1/1" xmlns:xsi="http://www.w3.org/2001/XMLSchema-instance" xsi:schemaLocation="http://www.topografix.com/GPX/1/1 http://www.topografix.com/GPX/1/1/gpx.xsd" version="1.1" creator="VisuGPX - https://www.visugpx.com">
  <metadata>
    <name>circuit entrainement pour trail retinathlon</name>
    <desc><![CDATA[circuit entrainement pour retinathlon]]></desc>
  </metadata>
  <trk>
    <name><![CDATA[11-AOU-15 19:14:09]]></name>
    <trkseg>
      <trkpt lat="47.27553" lon="6.80505">
        <ele>837.93</ele>
        <time>2015-08-05T06:45:12Z</time>
      </trkpt>
      <trkpt lat="47.27552" lon="6.80504">
        <ele>835.52</ele>
        <time>2015-08-05T06:45:41Z</time>
      </trkpt>
      <trkpt lat="47.27553" lon="6.80501">
        <ele>830.72</ele>
        <time>2015-08-05T06:46:05Z</time>
      </trkpt>
      <trkpt lat="47.27561" lon="6.8049">
        <ele>798.51</ele>
        <time>2015-08-05T06:46:17Z</time>
      </trkpt>
      <trkpt lat="47.27562" lon="6.80484">
        <ele>804.76</ele>
        <time>2015-08-05T06:46:38Z</time>
      </trkpt>
      <trkpt lat="47.27559" lon="6.80483">
        <ele>808.61</ele>
        <time>2015-08-05T06:47:03Z</time>
      </trkpt>
      <trkpt lat="47.2756" lon="6.80482">
        <ele>804.76</ele>
        <time>2015-08-05T06:47:27Z</time>
      </trkpt>
      <trkpt lat="47.27561" lon="6.80482">
        <ele>804.28</ele>
        <time>2015-08-05T06:47:57Z</time>
      </trkpt>
      <trkpt lat="47.27561" lon="6.80483">
        <ele>802.84</ele>
        <time>2015-08-05T06:48:21Z</time>
      </trkpt>
      <trkpt lat="47.27561" lon="6.8045">
        <ele>783.13</ele>
        <time>2015-08-11T15:38:03Z</time>
      </trkpt>
      <trkpt lat="47.27566" lon="6.80467">
        <ele>795.15</ele>
        <time>2015-08-11T15:38:32Z</time>
      </trkpt>
      <trkpt lat="47.27562" lon="6.80473">
        <ele>797.07</ele>
        <time>2015-08-11T15:39:04Z</time>
      </trkpt>
      <trkpt lat="47.27556" lon="6.80479">
        <ele>802.84</ele>
        <time>2015-08-11T15:39:34Z</time>
      </trkpt>
      <trkpt lat="47.27556" lon="6.80481">
        <ele>799.95</ele>
        <time>2015-08-11T15:40:06Z</time>
      </trkpt>
      <trkpt lat="47.27556" lon="6.80482">
        <ele>798.99</ele>
        <time>2015-08-11T15:40:40Z</time>
      </trkpt>
      <trkpt lat="47.27557" lon="6.80482">
        <ele>798.51</ele>
        <time>2015-08-11T15:41:11Z</time>
      </trkpt>
      <trkpt lat="47.27558" lon="6.80482">
        <ele>798.51</ele>
        <time>2015-08-11T15:41:46Z</time>
      </trkpt>
      <trkpt lat="47.27556" lon="6.80481">
        <ele>799.47</ele>
        <time>2015-08-11T15:42:18Z</time>
      </trkpt>
      <trkpt lat="47.27557" lon="6.80482">
        <ele>799.47</ele>
        <time>2015-08-11T15:42:48Z</time>
      </trkpt>
      <trkpt lat="47.27559" lon="6.80481">
        <ele>799.95</ele>
        <time>2015-08-11T15:43:25Z</time>
      </trkpt>
      <trkpt lat="47.2756" lon="6.80482">
        <ele>800.44</ele>
        <time>2015-08-11T15:44:00Z</time>
      </trkpt>
      <trkpt lat="47.2756" lon="6.8048">
        <ele>800.92</ele>
        <time>2015-08-11T15:44:32Z</time>
      </trkpt>
      <trkpt lat="47.2756" lon="6.8048">
        <ele>802.36</ele>
        <time>2015-08-11T15:45:02Z</time>
      </trkpt>
      <trkpt lat="47.2756" lon="6.8048">
        <ele>802.36</ele>
        <time>2015-08-11T15:45:35Z</time>
      </trkpt>
      <trkpt lat="47.2756" lon="6.80479">
        <ele>803.8</ele>
        <time>2015-08-11T15:46:03Z</time>
      </trkpt>
      <trkpt lat="47.2756" lon="6.8048">
        <ele>803.8</ele>
        <time>2015-08-11T15:46:37Z</time>
      </trkpt>
      <trkpt lat="47.2756" lon="6.80479">
        <ele>804.28</ele>
        <time>2015-08-11T15:46:58Z</time>
      </trkpt>
      <trkpt lat="47.27561" lon="6.8048">
        <ele>805.24</ele>
        <time>2015-08-11T15:47:28Z</time>
      </trkpt>
      <trkpt lat="47.27562" lon="6.8048">
        <ele>805.72</ele>
        <time>2015-08-11T15:47:52Z</time>
      </trkpt>
      <trkpt lat="47.27562" lon="6.8048">
        <ele>806.2</ele>
        <time>2015-08-11T15:48:11Z</time>
      </trkpt>
      <trkpt lat="47.27562" lon="6.8048">
        <ele>806.2</ele>
        <time>2015-08-11T15:48:14Z</time>
      </trkpt>
      <trkpt lat="47.27561" lon="6.80481">
        <ele>806.2</ele>
        <time>2015-08-11T15:48:29Z</time>
      </trkpt>
      <trkpt lat="47.2756" lon="6.8048">
        <ele>805.72</ele>
        <time>2015-08-11T15:48:52Z</time>
      </trkpt>
      <trkpt lat="47.27559" lon="6.80482">
        <ele>806.2</ele>
        <time>2015-08-11T15:49:08Z</time>
      </trkpt>
      <trkpt lat="47.2756" lon="6.80483">
        <ele>805.72</ele>
        <time>2015-08-11T15:49:38Z</time>
      </trkpt>
      <trkpt lat="47.27559" lon="6.80483">
        <ele>805.72</ele>
        <time>2015-08-11T15:49:53Z</time>
      </trkpt>
      <trkpt lat="47.27559" lon="6.80483">
        <ele>806.2</ele>
        <time>2015-08-11T15:50:13Z</time>
      </trkpt>
      <trkpt lat="47.27559" lon="6.80483">
        <ele>806.2</ele>
        <time>2015-08-11T15:50:38Z</time>
      </trkpt>
      <trkpt lat="47.27558" lon="6.80483">
        <ele>806.2</ele>
        <time>2015-08-11T15:50:59Z</time>
      </trkpt>
      <trkpt lat="47.27558" lon="6.80484">
        <ele>806.2</ele>
        <time>2015-08-11T15:51:31Z</time>
      </trkpt>
      <trkpt lat="47.27558" lon="6.80484">
        <ele>805.24</ele>
        <time>2015-08-11T15:51:41Z</time>
      </trkpt>
      <trkpt lat="47.27558" lon="6.80484">
        <ele>805.24</ele>
        <time>2015-08-11T15:51:51Z</time>
      </trkpt>
      <trkpt lat="47.27558" lon="6.80483">
        <ele>804.76</ele>
        <time>2015-08-11T15:52:06Z</time>
      </trkpt>
      <trkpt lat="47.2756" lon="6.8048">
        <ele>804.76</ele>
        <time>2015-08-11T15:52:21Z</time>
      </trkpt>
      <trkpt lat="47.2756" lon="6.80481">
        <ele>804.76</ele>
        <time>2015-08-11T15:52:27Z</time>
      </trkpt>
      <trkpt lat="47.27569" lon="6.80509">
        <ele>807.64</ele>
        <time>2015-08-11T15:52:38Z</time>
      </trkpt>
      <trkpt lat="47.27558" lon="6.80556">
        <ele>809.57</ele>
        <time>2015-08-11T15:52:49Z</time>
      </trkpt>
      <trkpt lat="47.27568" lon="6.80597">
        <ele>809.09</ele>
        <time>2015-08-11T15:52:59Z</time>
      </trkpt>
      <trkpt lat="47.27579" lon="6.8061">
        <ele>807.16</ele>
        <time>2015-08-11T15:53:04Z</time>
      </trkpt>
      <trkpt lat="47.2758" lon="6.80627">
        <ele>806.2</ele>
        <time>2015-08-11T15:53:10Z</time>
      </trkpt>
      <trkpt lat="47.27551" lon="6.8064">
        <ele>807.64</ele>
        <time>2015-08-11T15:53:21Z</time>
      </trkpt>
      <trkpt lat="47.27526" lon="6.80639">
        <ele>809.57</ele>
        <time>2015-08-11T15:53:31Z</time>
      </trkpt>
      <trkpt lat="47.27508" lon="6.80611">
        <ele>808.61</ele>
        <time>2015-08-11T15:53:42Z</time>
      </trkpt>
      <trkpt lat="47.27493" lon="6.80575">
        <ele>805.24</ele>
        <time>2015-08-11T15:53:53Z</time>
      </trkpt>
      <trkpt lat="47.27478" lon="6.80551">
        <ele>803.32</ele>
        <time>2015-08-11T15:54:02Z</time>
      </trkpt>
      <trkpt lat="47.27459" lon="6.80541">
        <ele>804.28</ele>
        <time>2015-08-11T15:54:10Z</time>
      </trkpt>
      <trkpt lat="47.27439" lon="6.8054">
        <ele>806.2</ele>
        <time>2015-08-11T15:54:18Z</time>
      </trkpt>
      <trkpt lat="47.2744" lon="6.8056">
        <ele>811.01</ele>
        <time>2015-08-11T15:54:28Z</time>
      </trkpt>
      <trkpt lat="47.27446" lon="6.80592">
        <ele>817.74</ele>
        <time>2015-08-11T15:54:40Z</time>
      </trkpt>
      <trkpt lat="47.27455" lon="6.8063">
        <ele>823.99</ele>
        <time>2015-08-11T15:54:54Z</time>
      </trkpt>
      <trkpt lat="47.2746" lon="6.80649">
        <ele>826.87</ele>
        <time>2015-08-11T15:55:00Z</time>
      </trkpt>
      <trkpt lat="47.27468" lon="6.80685">
        <ele>833.6</ele>
        <time>2015-08-11T15:55:14Z</time>
      </trkpt>
      <trkpt lat="47.27469" lon="6.80688">
        <ele>834.08</ele>
        <time>2015-08-11T15:55:15Z</time>
      </trkpt>
      <trkpt lat="47.27475" lon="6.80729">
        <ele>838.89</ele>
        <time>2015-08-11T15:55:27Z</time>
      </trkpt>
      <trkpt lat="47.2748" lon="6.8077">
        <ele>842.25</ele>
        <time>2015-08-11T15:55:39Z</time>
      </trkpt>
      <trkpt lat="47.2749" lon="6.80808">
        <ele>841.29</ele>
        <time>2015-08-11T15:55:51Z</time>
      </trkpt>
      <trkpt lat="47.27497" lon="6.80841">
        <ele>854.27</ele>
        <time>2015-08-11T15:56:07Z</time>
      </trkpt>
      <trkpt lat="47.27505" lon="6.80892">
        <ele>855.71</ele>
        <time>2015-08-11T15:56:20Z</time>
      </trkpt>
      <trkpt lat="47.27522" lon="6.80949">
        <ele>848.02</ele>
        <time>2015-08-11T15:56:35Z</time>
      </trkpt>
      <trkpt lat="47.27529" lon="6.8099">
        <ele>846.58</ele>
        <time>2015-08-11T15:56:48Z</time>
      </trkpt>
      <trkpt lat="47.27543" lon="6.81046">
        <ele>844.18</ele>
        <time>2015-08-11T15:57:05Z</time>
      </trkpt>
      <trkpt lat="47.27549" lon="6.81079">
        <ele>847.06</ele>
        <time>2015-08-11T15:57:16Z</time>
      </trkpt>
      <trkpt lat="47.27547" lon="6.81115">
        <ele>853.31</ele>
        <time>2015-08-11T15:57:29Z</time>
      </trkpt>
      <trkpt lat="47.27535" lon="6.8116">
        <ele>855.71</ele>
        <time>2015-08-11T15:57:42Z</time>
      </trkpt>
      <trkpt lat="47.27543" lon="6.81194">
        <ele>853.79</ele>
        <time>2015-08-11T15:57:54Z</time>
      </trkpt>
      <trkpt lat="47.27541" lon="6.81209">
        <ele>850.9</ele>
        <time>2015-08-11T15:58:01Z</time>
      </trkpt>
      <trkpt lat="47.27545" lon="6.81227">
        <ele>850.42</ele>
        <time>2015-08-11T15:58:08Z</time>
      </trkpt>
      <trkpt lat="47.27546" lon="6.81233">
        <ele>849.46</ele>
        <time>2015-08-11T15:58:12Z</time>
      </trkpt>
      <trkpt lat="47.27569" lon="6.81255">
        <ele>840.81</ele>
        <time>2015-08-11T15:58:24Z</time>
      </trkpt>
      <trkpt lat="47.27577" lon="6.81267">
        <ele>843.21</ele>
        <time>2015-08-11T15:58:29Z</time>
      </trkpt>
      <trkpt lat="47.27578" lon="6.81274">
        <ele>843.21</ele>
        <time>2015-08-11T15:58:31Z</time>
      </trkpt>
      <trkpt lat="47.27584" lon="6.81283">
        <ele>841.77</ele>
        <time>2015-08-11T15:58:36Z</time>
      </trkpt>
      <trkpt lat="47.27619" lon="6.81273">
        <ele>836</ele>
        <time>2015-08-11T15:58:51Z</time>
      </trkpt>
      <trkpt lat="47.2763" lon="6.81232">
        <ele>840.81</ele>
        <time>2015-08-11T15:59:04Z</time>
      </trkpt>
      <trkpt lat="47.27648" lon="6.81193">
        <ele>841.29</ele>
        <time>2015-08-11T15:59:15Z</time>
      </trkpt>
      <trkpt lat="47.27665" lon="6.81156">
        <ele>837.93</ele>
        <time>2015-08-11T15:59:27Z</time>
      </trkpt>
      <trkpt lat="47.2768" lon="6.8113">
        <ele>827.35</ele>
        <time>2015-08-11T15:59:39Z</time>
      </trkpt>
      <trkpt lat="47.2771" lon="6.81117">
        <ele>822.55</ele>
        <time>2015-08-11T15:59:52Z</time>
      </trkpt>
      <trkpt lat="47.27729" lon="6.8111">
        <ele>817.26</ele>
        <time>2015-08-11T16:00:01Z</time>
      </trkpt>
      <trkpt lat="47.27753" lon="6.81087">
        <ele>798.03</ele>
        <time>2015-08-11T16:00:15Z</time>
      </trkpt>
      <trkpt lat="47.27757" lon="6.81073">
        <ele>793.22</ele>
        <time>2015-08-11T16:00:20Z</time>
      </trkpt>
      <trkpt lat="47.27764" lon="6.8107">
        <ele>793.22</ele>
        <time>2015-08-11T16:00:24Z</time>
      </trkpt>
      <trkpt lat="47.27773" lon="6.81079">
        <ele>792.26</ele>
        <time>2015-08-11T16:00:29Z</time>
      </trkpt>
      <trkpt lat="47.2779" lon="6.81109">
        <ele>793.22</ele>
        <time>2015-08-11T16:00:42Z</time>
      </trkpt>
      <trkpt lat="47.27808" lon="6.81135">
        <ele>798.03</ele>
        <time>2015-08-11T16:00:56Z</time>
      </trkpt>
      <trkpt lat="47.27818" lon="6.81145">
        <ele>800.44</ele>
        <time>2015-08-11T16:01:07Z</time>
      </trkpt>
      <trkpt lat="47.27818" lon="6.81146">
        <ele>800.44</ele>
        <time>2015-08-11T16:01:14Z</time>
      </trkpt>
      <trkpt lat="47.27818" lon="6.81149">
        <ele>801.4</ele>
        <time>2015-08-11T16:01:16Z</time>
      </trkpt>
      <trkpt lat="47.27836" lon="6.81184">
        <ele>804.76</ele>
        <time>2015-08-11T16:01:30Z</time>
      </trkpt>
      <trkpt lat="47.27855" lon="6.81215">
        <ele>815.82</ele>
        <time>2015-08-11T16:01:45Z</time>
      </trkpt>
      <trkpt lat="47.27857" lon="6.81237">
        <ele>824.47</ele>
        <time>2015-08-11T16:01:59Z</time>
      </trkpt>
      <trkpt lat="47.2786" lon="6.81242">
        <ele>821.1</ele>
        <time>2015-08-11T16:02:09Z</time>
      </trkpt>
      <trkpt lat="47.27869" lon="6.8126">
        <ele>823.99</ele>
        <time>2015-08-11T16:02:19Z</time>
      </trkpt>
      <trkpt lat="47.27873" lon="6.81284">
        <ele>828.79</ele>
        <time>2015-08-11T16:02:26Z</time>
      </trkpt>
      <trkpt lat="47.27876" lon="6.81331">
        <ele>838.89</ele>
        <time>2015-08-11T16:02:40Z</time>
      </trkpt>
      <trkpt lat="47.27881" lon="6.81363">
        <ele>841.77</ele>
        <time>2015-08-11T16:02:51Z</time>
      </trkpt>
      <trkpt lat="47.27888" lon="6.81401">
        <ele>839.85</ele>
        <time>2015-08-11T16:03:03Z</time>
      </trkpt>
      <trkpt lat="47.27896" lon="6.81447">
        <ele>826.87</ele>
        <time>2015-08-11T16:03:15Z</time>
      </trkpt>
      <trkpt lat="47.27915" lon="6.81497">
        <ele>816.3</ele>
        <time>2015-08-11T16:03:30Z</time>
      </trkpt>
      <trkpt lat="47.27931" lon="6.8153">
        <ele>814.85</ele>
        <time>2015-08-11T16:03:45Z</time>
      </trkpt>
      <trkpt lat="47.27936" lon="6.81537">
        <ele>814.85</ele>
        <time>2015-08-11T16:03:49Z</time>
      </trkpt>
      <trkpt lat="47.27943" lon="6.81541">
        <ele>814.37</ele>
        <time>2015-08-11T16:03:55Z</time>
      </trkpt>
      <trkpt lat="47.27944" lon="6.81546">
        <ele>814.37</ele>
        <time>2015-08-11T16:03:58Z</time>
      </trkpt>
      <trkpt lat="47.27949" lon="6.81553">
        <ele>814.37</ele>
        <time>2015-08-11T16:04:02Z</time>
      </trkpt>
      <trkpt lat="47.27953" lon="6.81556">
        <ele>814.85</ele>
        <time>2015-08-11T16:04:04Z</time>
      </trkpt>
      <trkpt lat="47.27965" lon="6.81566">
        <ele>815.34</ele>
        <time>2015-08-11T16:04:11Z</time>
      </trkpt>
      <trkpt lat="47.27996" lon="6.81592">
        <ele>811.97</ele>
        <time>2015-08-11T16:04:25Z</time>
      </trkpt>
      <trkpt lat="47.28022" lon="6.8161">
        <ele>807.16</ele>
        <time>2015-08-11T16:04:37Z</time>
      </trkpt>
      <trkpt lat="47.28047" lon="6.81623">
        <ele>805.72</ele>
        <time>2015-08-11T16:04:49Z</time>
      </trkpt>
      <trkpt lat="47.28073" lon="6.81632">
        <ele>805.72</ele>
        <time>2015-08-11T16:05:02Z</time>
      </trkpt>
      <trkpt lat="47.28097" lon="6.81645">
        <ele>805.24</ele>
        <time>2015-08-11T16:05:15Z</time>
      </trkpt>
      <trkpt lat="47.28121" lon="6.81657">
        <ele>804.76</ele>
        <time>2015-08-11T16:05:28Z</time>
      </trkpt>
      <trkpt lat="47.28142" lon="6.81664">
        <ele>805.72</ele>
        <time>2015-08-11T16:05:41Z</time>
      </trkpt>
      <trkpt lat="47.28143" lon="6.8165">
        <ele>807.16</ele>
        <time>2015-08-11T16:05:48Z</time>
      </trkpt>
      <trkpt lat="47.2813" lon="6.81615">
        <ele>811.49</ele>
        <time>2015-08-11T16:06:04Z</time>
      </trkpt>
      <trkpt lat="47.28122" lon="6.81584">
        <ele>818.22</ele>
        <time>2015-08-11T16:06:17Z</time>
      </trkpt>
      <trkpt lat="47.2812" lon="6.81578">
        <ele>819.66</ele>
        <time>2015-08-11T16:06:20Z</time>
      </trkpt>
      <trkpt lat="47.2812" lon="6.81562">
        <ele>823.03</ele>
        <time>2015-08-11T16:06:27Z</time>
      </trkpt>
      <trkpt lat="47.2812" lon="6.81537">
        <ele>825.91</ele>
        <time>2015-08-11T16:06:36Z</time>
      </trkpt>
      <trkpt lat="47.28119" lon="6.81521">
        <ele>827.83</ele>
        <time>2015-08-11T16:06:42Z</time>
      </trkpt>
      <trkpt lat="47.28119" lon="6.81509">
        <ele>828.31</ele>
        <time>2015-08-11T16:06:47Z</time>
      </trkpt>
      <trkpt lat="47.2812" lon="6.81488">
        <ele>827.35</ele>
        <time>2015-08-11T16:06:54Z</time>
      </trkpt>
      <trkpt lat="47.28118" lon="6.8147">
        <ele>828.31</ele>
        <time>2015-08-11T16:07:01Z</time>
      </trkpt>
      <trkpt lat="47.28117" lon="6.81433">
        <ele>831.2</ele>
        <time>2015-08-11T16:07:16Z</time>
      </trkpt>
      <trkpt lat="47.2811" lon="6.81393">
        <ele>836.96</ele>
        <time>2015-08-11T16:07:32Z</time>
      </trkpt>
      <trkpt lat="47.28111" lon="6.81354">
        <ele>838.41</ele>
        <time>2015-08-11T16:07:44Z</time>
      </trkpt>
      <trkpt lat="47.28111" lon="6.81348">
        <ele>837.93</ele>
        <time>2015-08-11T16:07:46Z</time>
      </trkpt>
      <trkpt lat="47.28108" lon="6.81313">
        <ele>838.89</ele>
        <time>2015-08-11T16:07:58Z</time>
      </trkpt>
      <trkpt lat="47.28105" lon="6.81288">
        <ele>839.85</ele>
        <time>2015-08-11T16:08:06Z</time>
      </trkpt>
      <trkpt lat="47.28102" lon="6.81263">
        <ele>840.81</ele>
        <time>2015-08-11T16:08:14Z</time>
      </trkpt>
      <trkpt lat="47.281" lon="6.81245">
        <ele>842.73</ele>
        <time>2015-08-11T16:08:22Z</time>
      </trkpt>
      <trkpt lat="47.28098" lon="6.81221">
        <ele>846.58</ele>
        <time>2015-08-11T16:08:34Z</time>
      </trkpt>
      <trkpt lat="47.28097" lon="6.81213">
        <ele>848.98</ele>
        <time>2015-08-11T16:08:45Z</time>
      </trkpt>
      <trkpt lat="47.28096" lon="6.81212">
        <ele>848.98</ele>
        <time>2015-08-11T16:08:46Z</time>
      </trkpt>
      <trkpt lat="47.28094" lon="6.81206">
        <ele>849.94</ele>
        <time>2015-08-11T16:08:50Z</time>
      </trkpt>
      <trkpt lat="47.28088" lon="6.81185">
        <ele>849.94</ele>
        <time>2015-08-11T16:09:00Z</time>
      </trkpt>
      <trkpt lat="47.28086" lon="6.81181">
        <ele>849.46</ele>
        <time>2015-08-11T16:09:03Z</time>
      </trkpt>
      <trkpt lat="47.28083" lon="6.81177">
        <ele>849.46</ele>
        <time>2015-08-11T16:09:05Z</time>
      </trkpt>
      <trkpt lat="47.28072" lon="6.81153">
        <ele>848.5</ele>
        <time>2015-08-11T16:09:16Z</time>
      </trkpt>
      <trkpt lat="47.28068" lon="6.81134">
        <ele>847.54</ele>
        <time>2015-08-11T16:09:23Z</time>
      </trkpt>
      <trkpt lat="47.28065" lon="6.81091">
        <ele>846.1</ele>
        <time>2015-08-11T16:09:39Z</time>
      </trkpt>
      <trkpt lat="47.28061" lon="6.81063">
        <ele>846.58</ele>
        <time>2015-08-11T16:09:51Z</time>
      </trkpt>
      <trkpt lat="47.28055" lon="6.81047">
        <ele>848.02</ele>
        <time>2015-08-11T16:09:58Z</time>
      </trkpt>
      <trkpt lat="47.28052" lon="6.81042">
        <ele>848.98</ele>
        <time>2015-08-11T16:10:00Z</time>
      </trkpt>
      <trkpt lat="47.28043" lon="6.81017">
        <ele>851.87</ele>
        <time>2015-08-11T16:10:11Z</time>
      </trkpt>
      <trkpt lat="47.2804" lon="6.81003">
        <ele>853.31</ele>
        <time>2015-08-11T16:10:17Z</time>
      </trkpt>
      <trkpt lat="47.28031" lon="6.80962">
        <ele>856.19</ele>
        <time>2015-08-11T16:10:33Z</time>
      </trkpt>
      <trkpt lat="47.28025" lon="6.80946">
        <ele>856.19</ele>
        <time>2015-08-11T16:10:40Z</time>
      </trkpt>
      <trkpt lat="47.28022" lon="6.8093">
        <ele>856.67</ele>
        <time>2015-08-11T16:10:46Z</time>
      </trkpt>
      <trkpt lat="47.28023" lon="6.80926">
        <ele>857.15</ele>
        <time>2015-08-11T16:10:48Z</time>
      </trkpt>
      <trkpt lat="47.28027" lon="6.80912">
        <ele>858.11</ele>
        <time>2015-08-11T16:10:55Z</time>
      </trkpt>
      <trkpt lat="47.28025" lon="6.80901">
        <ele>858.59</ele>
        <time>2015-08-11T16:11:08Z</time>
      </trkpt>
      <trkpt lat="47.28022" lon="6.80896">
        <ele>859.08</ele>
        <time>2015-08-11T16:11:23Z</time>
      </trkpt>
      <trkpt lat="47.2802" lon="6.80896">
        <ele>860.04</ele>
        <time>2015-08-11T16:11:26Z</time>
      </trkpt>
      <trkpt lat="47.28015" lon="6.80887">
        <ele>859.56</ele>
        <time>2015-08-11T16:11:31Z</time>
      </trkpt>
      <trkpt lat="47.28009" lon="6.80866">
        <ele>858.11</ele>
        <time>2015-08-11T16:11:37Z</time>
      </trkpt>
      <trkpt lat="47.28006" lon="6.80848">
        <ele>855.71</ele>
        <time>2015-08-11T16:11:42Z</time>
      </trkpt>
      <trkpt lat="47.28014" lon="6.80796">
        <ele>847.06</ele>
        <time>2015-08-11T16:11:56Z</time>
      </trkpt>
      <trkpt lat="47.28021" lon="6.80753">
        <ele>838.41</ele>
        <time>2015-08-11T16:12:08Z</time>
      </trkpt>
      <trkpt lat="47.28007" lon="6.80712">
        <ele>830.24</ele>
        <time>2015-08-11T16:12:20Z</time>
      </trkpt>
      <trkpt lat="47.27982" lon="6.80683">
        <ele>823.99</ele>
        <time>2015-08-11T16:12:31Z</time>
      </trkpt>
      <trkpt lat="47.27953" lon="6.80648">
        <ele>817.74</ele>
        <time>2015-08-11T16:12:44Z</time>
      </trkpt>
      <trkpt lat="47.27927" lon="6.80617">
        <ele>811.97</ele>
        <time>2015-08-11T16:12:56Z</time>
      </trkpt>
      <trkpt lat="47.27906" lon="6.80592">
        <ele>808.13</ele>
        <time>2015-08-11T16:13:06Z</time>
      </trkpt>
      <trkpt lat="47.27898" lon="6.80582">
        <ele>807.64</ele>
        <time>2015-08-11T16:13:10Z</time>
      </trkpt>
      <trkpt lat="47.27877" lon="6.80535">
        <ele>803.8</ele>
        <time>2015-08-11T16:13:24Z</time>
      </trkpt>
      <trkpt lat="47.27885" lon="6.80495">
        <ele>802.36</ele>
        <time>2015-08-11T16:13:36Z</time>
      </trkpt>
      <trkpt lat="47.27913" lon="6.80462">
        <ele>802.84</ele>
        <time>2015-08-11T16:13:49Z</time>
      </trkpt>
      <trkpt lat="47.27934" lon="6.80431">
        <ele>805.24</ele>
        <time>2015-08-11T16:14:02Z</time>
      </trkpt>
      <trkpt lat="47.27955" lon="6.80406">
        <ele>807.64</ele>
        <time>2015-08-11T16:14:14Z</time>
      </trkpt>
      <trkpt lat="47.27969" lon="6.80378">
        <ele>809.57</ele>
        <time>2015-08-11T16:14:25Z</time>
      </trkpt>
      <trkpt lat="47.2799" lon="6.80345">
        <ele>811.01</ele>
        <time>2015-08-11T16:14:39Z</time>
      </trkpt>
      <trkpt lat="47.28011" lon="6.80312">
        <ele>811.97</ele>
        <time>2015-08-11T16:14:52Z</time>
      </trkpt>
      <trkpt lat="47.2802" lon="6.80281">
        <ele>811.49</ele>
        <time>2015-08-11T16:15:02Z</time>
      </trkpt>
      <trkpt lat="47.28022" lon="6.80261">
        <ele>811.49</ele>
        <time>2015-08-11T16:15:08Z</time>
      </trkpt>
      <trkpt lat="47.28028" lon="6.8021">
        <ele>812.93</ele>
        <time>2015-08-11T16:15:24Z</time>
      </trkpt>
      <trkpt lat="47.28036" lon="6.80174">
        <ele>812.45</ele>
        <time>2015-08-11T16:15:35Z</time>
      </trkpt>
      <trkpt lat="47.28047" lon="6.80138">
        <ele>812.93</ele>
        <time>2015-08-11T16:15:47Z</time>
      </trkpt>
      <trkpt lat="47.28059" lon="6.801">
        <ele>812.45</ele>
        <time>2015-08-11T16:15:59Z</time>
      </trkpt>
      <trkpt lat="47.28072" lon="6.80061">
        <ele>810.05</ele>
        <time>2015-08-11T16:16:11Z</time>
      </trkpt>
      <trkpt lat="47.28087" lon="6.8002">
        <ele>805.72</ele>
        <time>2015-08-11T16:16:24Z</time>
      </trkpt>
      <trkpt lat="47.28098" lon="6.79988">
        <ele>802.36</ele>
        <time>2015-08-11T16:16:35Z</time>
      </trkpt>
      <trkpt lat="47.28098" lon="6.79984">
        <ele>802.36</ele>
        <time>2015-08-11T16:16:36Z</time>
      </trkpt>
      <trkpt lat="47.28109" lon="6.79944">
        <ele>798.99</ele>
        <time>2015-08-11T16:16:48Z</time>
      </trkpt>
      <trkpt lat="47.28111" lon="6.79932">
        <ele>798.51</ele>
        <time>2015-08-11T16:16:52Z</time>
      </trkpt>
      <trkpt lat="47.28112" lon="6.79895">
        <ele>798.99</ele>
        <time>2015-08-11T16:17:09Z</time>
      </trkpt>
      <trkpt lat="47.28109" lon="6.79866">
        <ele>798.03</ele>
        <time>2015-08-11T16:17:19Z</time>
      </trkpt>
      <trkpt lat="47.28121" lon="6.7983">
        <ele>798.99</ele>
        <time>2015-08-11T16:17:29Z</time>
      </trkpt>
      <trkpt lat="47.28143" lon="6.79802">
        <ele>797.55</ele>
        <time>2015-08-11T16:17:41Z</time>
      </trkpt>
      <trkpt lat="47.28167" lon="6.79793">
        <ele>797.07</ele>
        <time>2015-08-11T16:17:51Z</time>
      </trkpt>
      <trkpt lat="47.28195" lon="6.79777">
        <ele>796.59</ele>
        <time>2015-08-11T16:18:03Z</time>
      </trkpt>
      <trkpt lat="47.28218" lon="6.79764">
        <ele>794.19</ele>
        <time>2015-08-11T16:18:15Z</time>
      </trkpt>
      <trkpt lat="47.28228" lon="6.79759">
        <ele>794.19</ele>
        <time>2015-08-11T16:18:21Z</time>
      </trkpt>
      <trkpt lat="47.28237" lon="6.7976">
        <ele>793.71</ele>
        <time>2015-08-11T16:18:34Z</time>
      </trkpt>
      <trkpt lat="47.28243" lon="6.79756">
        <ele>793.71</ele>
        <time>2015-08-11T16:18:38Z</time>
      </trkpt>
      <trkpt lat="47.28252" lon="6.79754">
        <ele>794.19</ele>
        <time>2015-08-11T16:18:42Z</time>
      </trkpt>
      <trkpt lat="47.28264" lon="6.79754">
        <ele>796.59</ele>
        <time>2015-08-11T16:18:48Z</time>
      </trkpt>
      <trkpt lat="47.2828" lon="6.79754">
        <ele>798.03</ele>
        <time>2015-08-11T16:18:57Z</time>
      </trkpt>
      <trkpt lat="47.2829" lon="6.79756">
        <ele>797.07</ele>
        <time>2015-08-11T16:19:13Z</time>
      </trkpt>
      <trkpt lat="47.28299" lon="6.79755">
        <ele>797.55</ele>
        <time>2015-08-11T16:19:21Z</time>
      </trkpt>
      <trkpt lat="47.28302" lon="6.79752">
        <ele>797.07</ele>
        <time>2015-08-11T16:19:23Z</time>
      </trkpt>
      <trkpt lat="47.28328" lon="6.79758">
        <ele>794.19</ele>
        <time>2015-08-11T16:19:36Z</time>
      </trkpt>
      <trkpt lat="47.28349" lon="6.79753">
        <ele>792.26</ele>
        <time>2015-08-11T16:19:48Z</time>
      </trkpt>
      <trkpt lat="47.28378" lon="6.79758">
        <ele>793.71</ele>
        <time>2015-08-11T16:20:03Z</time>
      </trkpt>
      <trkpt lat="47.28386" lon="6.79765">
        <ele>794.67</ele>
        <time>2015-08-11T16:20:19Z</time>
      </trkpt>
      <trkpt lat="47.28391" lon="6.79767">
        <ele>794.67</ele>
        <time>2015-08-11T16:20:33Z</time>
      </trkpt>
      <trkpt lat="47.28392" lon="6.79766">
        <ele>794.19</ele>
        <time>2015-08-11T16:20:37Z</time>
      </trkpt>
      <trkpt lat="47.28403" lon="6.79765">
        <ele>795.15</ele>
        <time>2015-08-11T16:20:43Z</time>
      </trkpt>
      <trkpt lat="47.28411" lon="6.79768">
        <ele>796.11</ele>
        <time>2015-08-11T16:20:47Z</time>
      </trkpt>
      <trkpt lat="47.2842" lon="6.79773">
        <ele>798.03</ele>
        <time>2015-08-11T16:20:53Z</time>
      </trkpt>
      <trkpt lat="47.28436" lon="6.79795">
        <ele>802.84</ele>
        <time>2015-08-11T16:21:07Z</time>
      </trkpt>
      <trkpt lat="47.28437" lon="6.79796">
        <ele>803.32</ele>
        <time>2015-08-11T16:21:08Z</time>
      </trkpt>
      <trkpt lat="47.28447" lon="6.79805">
        <ele>810.53</ele>
        <time>2015-08-11T16:21:23Z</time>
      </trkpt>
      <trkpt lat="47.2846" lon="6.79819">
        <ele>815.82</ele>
        <time>2015-08-11T16:21:35Z</time>
      </trkpt>
      <trkpt lat="47.2849" lon="6.79832">
        <ele>809.09</ele>
        <time>2015-08-11T16:21:51Z</time>
      </trkpt>
      <trkpt lat="47.285" lon="6.79832">
        <ele>807.16</ele>
        <time>2015-08-11T16:22:04Z</time>
      </trkpt>
      <trkpt lat="47.28518" lon="6.79839">
        <ele>808.13</ele>
        <time>2015-08-11T16:22:17Z</time>
      </trkpt>
      <trkpt lat="47.2854" lon="6.79831">
        <ele>803.32</ele>
        <time>2015-08-11T16:22:33Z</time>
      </trkpt>
      <trkpt lat="47.28554" lon="6.79809">
        <ele>799.47</ele>
        <time>2015-08-11T16:22:47Z</time>
      </trkpt>
      <trkpt lat="47.28569" lon="6.79784">
        <ele>797.55</ele>
        <time>2015-08-11T16:23:02Z</time>
      </trkpt>
      <trkpt lat="47.28577" lon="6.79772">
        <ele>795.15</ele>
        <time>2015-08-11T16:23:14Z</time>
      </trkpt>
      <trkpt lat="47.28578" lon="6.7977">
        <ele>794.67</ele>
        <time>2015-08-11T16:23:15Z</time>
      </trkpt>
      <trkpt lat="47.28578" lon="6.79764">
        <ele>794.19</ele>
        <time>2015-08-11T16:23:20Z</time>
      </trkpt>
      <trkpt lat="47.28577" lon="6.79753">
        <ele>796.59</ele>
        <time>2015-08-11T16:23:28Z</time>
      </trkpt>
      <trkpt lat="47.28568" lon="6.79733">
        <ele>804.76</ele>
        <time>2015-08-11T16:23:41Z</time>
      </trkpt>
      <trkpt lat="47.28563" lon="6.7972">
        <ele>804.76</ele>
        <time>2015-08-11T16:23:47Z</time>
      </trkpt>
      <trkpt lat="47.2854" lon="6.79691">
        <ele>793.71</ele>
        <time>2015-08-11T16:24:02Z</time>
      </trkpt>
      <trkpt lat="47.28519" lon="6.79674">
        <ele>785.05</ele>
        <time>2015-08-11T16:24:18Z</time>
      </trkpt>
      <trkpt lat="47.28504" lon="6.79645">
        <ele>784.09</ele>
        <time>2015-08-11T16:24:32Z</time>
      </trkpt>
      <trkpt lat="47.28479" lon="6.79611">
        <ele>785.05</ele>
        <time>2015-08-11T16:24:48Z</time>
      </trkpt>
      <trkpt lat="47.28463" lon="6.79592">
        <ele>779.77</ele>
        <time>2015-08-11T16:25:02Z</time>
      </trkpt>
      <trkpt lat="47.28462" lon="6.79591">
        <ele>779.77</ele>
        <time>2015-08-11T16:25:03Z</time>
      </trkpt>
      <trkpt lat="47.28456" lon="6.79586">
        <ele>779.29</ele>
        <time>2015-08-11T16:25:08Z</time>
      </trkpt>
      <trkpt lat="47.28453" lon="6.79582">
        <ele>778.81</ele>
        <time>2015-08-11T16:25:12Z</time>
      </trkpt>
      <trkpt lat="47.28448" lon="6.79576">
        <ele>777.84</ele>
        <time>2015-08-11T16:25:17Z</time>
      </trkpt>
      <trkpt lat="47.28435" lon="6.7956">
        <ele>772.56</ele>
        <time>2015-08-11T16:25:27Z</time>
      </trkpt>
      <trkpt lat="47.28431" lon="6.79546">
        <ele>769.19</ele>
        <time>2015-08-11T16:25:32Z</time>
      </trkpt>
      <trkpt lat="47.28426" lon="6.79529">
        <ele>766.31</ele>
        <time>2015-08-11T16:25:38Z</time>
      </trkpt>
      <trkpt lat="47.28417" lon="6.7951">
        <ele>763.42</ele>
        <time>2015-08-11T16:25:46Z</time>
      </trkpt>
      <trkpt lat="47.28413" lon="6.795">
        <ele>762.94</ele>
        <time>2015-08-11T16:25:50Z</time>
      </trkpt>
      <trkpt lat="47.28397" lon="6.79472">
        <ele>765.83</ele>
        <time>2015-08-11T16:26:02Z</time>
      </trkpt>
      <trkpt lat="47.28377" lon="6.79449">
        <ele>774.96</ele>
        <time>2015-08-11T16:26:16Z</time>
      </trkpt>
      <trkpt lat="47.28366" lon="6.79443">
        <ele>778.32</ele>
        <time>2015-08-11T16:26:22Z</time>
      </trkpt>
      <trkpt lat="47.28352" lon="6.79422">
        <ele>777.36</ele>
        <time>2015-08-11T16:26:32Z</time>
      </trkpt>
      <trkpt lat="47.28348" lon="6.79413">
        <ele>778.32</ele>
        <time>2015-08-11T16:26:36Z</time>
      </trkpt>
      <trkpt lat="47.2833" lon="6.79387">
        <ele>777.84</ele>
        <time>2015-08-11T16:26:50Z</time>
      </trkpt>
      <trkpt lat="47.28315" lon="6.79379">
        <ele>780.25</ele>
        <time>2015-08-11T16:27:02Z</time>
      </trkpt>
      <trkpt lat="47.28298" lon="6.7936">
        <ele>774.48</ele>
        <time>2015-08-11T16:27:15Z</time>
      </trkpt>
      <trkpt lat="47.28276" lon="6.79335">
        <ele>769.67</ele>
        <time>2015-08-11T16:27:29Z</time>
      </trkpt>
      <trkpt lat="47.28271" lon="6.79329">
        <ele>766.79</ele>
        <time>2015-08-11T16:27:33Z</time>
      </trkpt>
      <trkpt lat="47.28264" lon="6.79312">
        <ele>763.9</ele>
        <time>2015-08-11T16:27:40Z</time>
      </trkpt>
      <trkpt lat="47.28255" lon="6.79292">
        <ele>762.94</ele>
        <time>2015-08-11T16:27:47Z</time>
      </trkpt>
      <trkpt lat="47.28247" lon="6.79279">
        <ele>764.87</ele>
        <time>2015-08-11T16:27:52Z</time>
      </trkpt>
      <trkpt lat="47.28246" lon="6.79273">
        <ele>765.83</ele>
        <time>2015-08-11T16:27:54Z</time>
      </trkpt>
      <trkpt lat="47.28237" lon="6.79262">
        <ele>768.71</ele>
        <time>2015-08-11T16:27:59Z</time>
      </trkpt>
      <trkpt lat="47.28217" lon="6.79237">
        <ele>771.11</ele>
        <time>2015-08-11T16:28:12Z</time>
      </trkpt>
      <trkpt lat="47.28203" lon="6.79218">
        <ele>770.63</ele>
        <time>2015-08-11T16:28:21Z</time>
      </trkpt>
      <trkpt lat="47.282" lon="6.79214">
        <ele>771.6</ele>
        <time>2015-08-11T16:28:23Z</time>
      </trkpt>
      <trkpt lat="47.28195" lon="6.79206">
        <ele>773.04</ele>
        <time>2015-08-11T16:28:27Z</time>
      </trkpt>
      <trkpt lat="47.28176" lon="6.79177">
        <ele>772.56</ele>
        <time>2015-08-11T16:28:40Z</time>
      </trkpt>
      <trkpt lat="47.28165" lon="6.79161">
        <ele>771.6</ele>
        <time>2015-08-11T16:28:49Z</time>
      </trkpt>
      <trkpt lat="47.28151" lon="6.79144">
        <ele>763.9</ele>
        <time>2015-08-11T16:29:03Z</time>
      </trkpt>
      <trkpt lat="47.2813" lon="6.7912">
        <ele>762.94</ele>
        <time>2015-08-11T16:29:18Z</time>
      </trkpt>
      <trkpt lat="47.2811" lon="6.79109">
        <ele>761.5</ele>
        <time>2015-08-11T16:29:33Z</time>
      </trkpt>
      <trkpt lat="47.28099" lon="6.79101">
        <ele>759.58</ele>
        <time>2015-08-11T16:29:44Z</time>
      </trkpt>
      <trkpt lat="47.28079" lon="6.79081">
        <ele>761.5</ele>
        <time>2015-08-11T16:29:55Z</time>
      </trkpt>
      <trkpt lat="47.2807" lon="6.79072">
        <ele>761.5</ele>
        <time>2015-08-11T16:30:00Z</time>
      </trkpt>
      <trkpt lat="47.28054" lon="6.79065">
        <ele>760.54</ele>
        <time>2015-08-11T16:30:08Z</time>
      </trkpt>
      <trkpt lat="47.28043" lon="6.79055">
        <ele>758.62</ele>
        <time>2015-08-11T16:30:14Z</time>
      </trkpt>
      <trkpt lat="47.28019" lon="6.79038">
        <ele>754.77</ele>
        <time>2015-08-11T16:30:27Z</time>
      </trkpt>
      <trkpt lat="47.27999" lon="6.79022">
        <ele>752.37</ele>
        <time>2015-08-11T16:30:39Z</time>
      </trkpt>
      <trkpt lat="47.27993" lon="6.79019">
        <ele>752.37</ele>
        <time>2015-08-11T16:30:42Z</time>
      </trkpt>
      <trkpt lat="47.27969" lon="6.79008">
        <ele>752.37</ele>
        <time>2015-08-11T16:30:55Z</time>
      </trkpt>
      <trkpt lat="47.27946" lon="6.78992">
        <ele>751.41</ele>
        <time>2015-08-11T16:31:07Z</time>
      </trkpt>
      <trkpt lat="47.27941" lon="6.78979">
        <ele>749.49</ele>
        <time>2015-08-11T16:31:12Z</time>
      </trkpt>
      <trkpt lat="47.27939" lon="6.78967">
        <ele>746.6</ele>
        <time>2015-08-11T16:31:24Z</time>
      </trkpt>
      <trkpt lat="47.27938" lon="6.78951">
        <ele>745.64</ele>
        <time>2015-08-11T16:31:30Z</time>
      </trkpt>
      <trkpt lat="47.27938" lon="6.78937">
        <ele>745.16</ele>
        <time>2015-08-11T16:31:35Z</time>
      </trkpt>
      <trkpt lat="47.2794" lon="6.78931">
        <ele>744.2</ele>
        <time>2015-08-11T16:31:49Z</time>
      </trkpt>
      <trkpt lat="47.2794" lon="6.78918">
        <ele>743.72</ele>
        <time>2015-08-11T16:31:53Z</time>
      </trkpt>
      <trkpt lat="47.27943" lon="6.78908">
        <ele>743.72</ele>
        <time>2015-08-11T16:31:57Z</time>
      </trkpt>
      <trkpt lat="47.27953" lon="6.78889">
        <ele>743.72</ele>
        <time>2015-08-11T16:32:12Z</time>
      </trkpt>
      <trkpt lat="47.27954" lon="6.78886">
        <ele>744.2</ele>
        <time>2015-08-11T16:32:16Z</time>
      </trkpt>
      <trkpt lat="47.27958" lon="6.78875">
        <ele>746.6</ele>
        <time>2015-08-11T16:32:26Z</time>
      </trkpt>
      <trkpt lat="47.2796" lon="6.7887">
        <ele>748.04</ele>
        <time>2015-08-11T16:32:30Z</time>
      </trkpt>
      <trkpt lat="47.27963" lon="6.78861">
        <ele>750.45</ele>
        <time>2015-08-11T16:32:38Z</time>
      </trkpt>
      <trkpt lat="47.27968" lon="6.78853">
        <ele>752.85</ele>
        <time>2015-08-11T16:32:46Z</time>
      </trkpt>
      <trkpt lat="47.27974" lon="6.78834">
        <ele>755.25</ele>
        <time>2015-08-11T16:33:00Z</time>
      </trkpt>
      <trkpt lat="47.27983" lon="6.78818">
        <ele>757.18</ele>
        <time>2015-08-11T16:33:12Z</time>
      </trkpt>
      <trkpt lat="47.27984" lon="6.78815">
        <ele>757.66</ele>
        <time>2015-08-11T16:33:14Z</time>
      </trkpt>
      <trkpt lat="47.27989" lon="6.78806">
        <ele>758.62</ele>
        <time>2015-08-11T16:33:20Z</time>
      </trkpt>
      <trkpt lat="47.27991" lon="6.78801">
        <ele>759.1</ele>
        <time>2015-08-11T16:33:24Z</time>
      </trkpt>
      <trkpt lat="47.27999" lon="6.78781">
        <ele>761.02</ele>
        <time>2015-08-11T16:33:39Z</time>
      </trkpt>
      <trkpt lat="47.28" lon="6.78771">
        <ele>762.46</ele>
        <time>2015-08-11T16:33:47Z</time>
      </trkpt>
      <trkpt lat="47.27993" lon="6.7875">
        <ele>768.71</ele>
        <time>2015-08-11T16:34:02Z</time>
      </trkpt>
      <trkpt lat="47.27993" lon="6.78749">
        <ele>769.19</ele>
        <time>2015-08-11T16:34:03Z</time>
      </trkpt>
      <trkpt lat="47.27982" lon="6.78726">
        <ele>774.96</ele>
        <time>2015-08-11T16:34:14Z</time>
      </trkpt>
      <trkpt lat="47.2797" lon="6.787">
        <ele>779.29</ele>
        <time>2015-08-11T16:34:24Z</time>
      </trkpt>
      <trkpt lat="47.27969" lon="6.78697">
        <ele>779.77</ele>
        <time>2015-08-11T16:34:25Z</time>
      </trkpt>
      <trkpt lat="47.27961" lon="6.78673">
        <ele>781.69</ele>
        <time>2015-08-11T16:34:32Z</time>
      </trkpt>
      <trkpt lat="47.27951" lon="6.78635">
        <ele>781.69</ele>
        <time>2015-08-11T16:34:45Z</time>
      </trkpt>
      <trkpt lat="47.27952" lon="6.78629">
        <ele>779.29</ele>
        <time>2015-08-11T16:34:56Z</time>
      </trkpt>
      <trkpt lat="47.27946" lon="6.78609">
        <ele>779.29</ele>
        <time>2015-08-11T16:35:05Z</time>
      </trkpt>
      <trkpt lat="47.27942" lon="6.78596">
        <ele>780.73</ele>
        <time>2015-08-11T16:35:10Z</time>
      </trkpt>
      <trkpt lat="47.27948" lon="6.78567">
        <ele>782.17</ele>
        <time>2015-08-11T16:35:21Z</time>
      </trkpt>
      <trkpt lat="47.27978" lon="6.78561">
        <ele>781.69</ele>
        <time>2015-08-11T16:35:33Z</time>
      </trkpt>
      <trkpt lat="47.28003" lon="6.78555">
        <ele>777.84</ele>
        <time>2015-08-11T16:35:42Z</time>
      </trkpt>
      <trkpt lat="47.28033" lon="6.78538">
        <ele>774.48</ele>
        <time>2015-08-11T16:35:55Z</time>
      </trkpt>
      <trkpt lat="47.28055" lon="6.78528">
        <ele>770.63</ele>
        <time>2015-08-11T16:36:05Z</time>
      </trkpt>
      <trkpt lat="47.28081" lon="6.78523">
        <ele>768.71</ele>
        <time>2015-08-11T16:36:16Z</time>
      </trkpt>
      <trkpt lat="47.28105" lon="6.78507">
        <ele>768.23</ele>
        <time>2015-08-11T16:36:28Z</time>
      </trkpt>
      <trkpt lat="47.28132" lon="6.78484">
        <ele>767.27</ele>
        <time>2015-08-11T16:36:41Z</time>
      </trkpt>
      <trkpt lat="47.28154" lon="6.78475">
        <ele>764.87</ele>
        <time>2015-08-11T16:36:51Z</time>
      </trkpt>
      <trkpt lat="47.28182" lon="6.7848">
        <ele>762.94</ele>
        <time>2015-08-11T16:37:03Z</time>
      </trkpt>
      <trkpt lat="47.28206" lon="6.78483">
        <ele>762.94</ele>
        <time>2015-08-11T16:37:13Z</time>
      </trkpt>
      <trkpt lat="47.28234" lon="6.78475">
        <ele>763.42</ele>
        <time>2015-08-11T16:37:26Z</time>
      </trkpt>
      <trkpt lat="47.28254" lon="6.78464">
        <ele>763.42</ele>
        <time>2015-08-11T16:37:37Z</time>
      </trkpt>
      <trkpt lat="47.28283" lon="6.78447">
        <ele>764.39</ele>
        <time>2015-08-11T16:37:52Z</time>
      </trkpt>
      <trkpt lat="47.28286" lon="6.78443">
        <ele>763.9</ele>
        <time>2015-08-11T16:37:54Z</time>
      </trkpt>
      <trkpt lat="47.28279" lon="6.7844">
        <ele>761.02</ele>
        <time>2015-08-11T16:38:01Z</time>
      </trkpt>
      <trkpt lat="47.28264" lon="6.78466">
        <ele>756.21</ele>
        <time>2015-08-11T16:38:15Z</time>
      </trkpt>
      <trkpt lat="47.28239" lon="6.7848">
        <ele>754.77</ele>
        <time>2015-08-11T16:38:29Z</time>
      </trkpt>
      <trkpt lat="47.28236" lon="6.78481">
        <ele>754.77</ele>
        <time>2015-08-11T16:38:31Z</time>
      </trkpt>
      <trkpt lat="47.28229" lon="6.78485">
        <ele>755.25</ele>
        <time>2015-08-11T16:38:36Z</time>
      </trkpt>
      <trkpt lat="47.28196" lon="6.78488">
        <ele>757.66</ele>
        <time>2015-08-11T16:38:54Z</time>
      </trkpt>
      <trkpt lat="47.28165" lon="6.78482">
        <ele>757.66</ele>
        <time>2015-08-11T16:39:11Z</time>
      </trkpt>
      <trkpt lat="47.28135" lon="6.78487">
        <ele>757.18</ele>
        <time>2015-08-11T16:39:27Z</time>
      </trkpt>
      <trkpt lat="47.28116" lon="6.78502">
        <ele>758.62</ele>
        <time>2015-08-11T16:39:41Z</time>
      </trkpt>
      <trkpt lat="47.28115" lon="6.78503">
        <ele>758.62</ele>
        <time>2015-08-11T16:39:42Z</time>
      </trkpt>
      <trkpt lat="47.28094" lon="6.78523">
        <ele>761.98</ele>
        <time>2015-08-11T16:39:57Z</time>
      </trkpt>
      <trkpt lat="47.2807" lon="6.78529">
        <ele>763.42</ele>
        <time>2015-08-11T16:40:12Z</time>
      </trkpt>
      <trkpt lat="47.28049" lon="6.78537">
        <ele>764.39</ele>
        <time>2015-08-11T16:40:26Z</time>
      </trkpt>
      <trkpt lat="47.28026" lon="6.78551">
        <ele>767.27</ele>
        <time>2015-08-11T16:40:41Z</time>
      </trkpt>
      <trkpt lat="47.28005" lon="6.78562">
        <ele>768.71</ele>
        <time>2015-08-11T16:40:55Z</time>
      </trkpt>
      <trkpt lat="47.27984" lon="6.78567">
        <ele>769.67</ele>
        <time>2015-08-11T16:41:08Z</time>
      </trkpt>
      <trkpt lat="47.27969" lon="6.7857">
        <ele>771.6</ele>
        <time>2015-08-11T16:41:19Z</time>
      </trkpt>
      <trkpt lat="47.27948" lon="6.78571">
        <ele>777.36</ele>
        <time>2015-08-11T16:41:33Z</time>
      </trkpt>
      <trkpt lat="47.27918" lon="6.78562">
        <ele>779.77</ele>
        <time>2015-08-11T16:41:46Z</time>
      </trkpt>
      <trkpt lat="47.27891" lon="6.78551">
        <ele>776.4</ele>
        <time>2015-08-11T16:42:00Z</time>
      </trkpt>
      <trkpt lat="47.27876" lon="6.78549">
        <ele>774.48</ele>
        <time>2015-08-11T16:42:13Z</time>
      </trkpt>
      <trkpt lat="47.27865" lon="6.78543">
        <ele>771.6</ele>
        <time>2015-08-11T16:42:28Z</time>
      </trkpt>
      <trkpt lat="47.2785" lon="6.78539">
        <ele>771.11</ele>
        <time>2015-08-11T16:42:44Z</time>
      </trkpt>
      <trkpt lat="47.27848" lon="6.78539">
        <ele>770.63</ele>
        <time>2015-08-11T16:43:09Z</time>
      </trkpt>
      <trkpt lat="47.27841" lon="6.78541">
        <ele>770.63</ele>
        <time>2015-08-11T16:43:28Z</time>
      </trkpt>
      <trkpt lat="47.27841" lon="6.78541">
        <ele>770.63</ele>
        <time>2015-08-11T16:43:32Z</time>
      </trkpt>
      <trkpt lat="47.27831" lon="6.78549">
        <ele>770.63</ele>
        <time>2015-08-11T16:43:37Z</time>
      </trkpt>
      <trkpt lat="47.27808" lon="6.78569">
        <ele>772.56</ele>
        <time>2015-08-11T16:43:49Z</time>
      </trkpt>
      <trkpt lat="47.27783" lon="6.78602">
        <ele>780.73</ele>
        <time>2015-08-11T16:44:06Z</time>
      </trkpt>
      <trkpt lat="47.27752" lon="6.78635">
        <ele>783.61</ele>
        <time>2015-08-11T16:44:21Z</time>
      </trkpt>
      <trkpt lat="47.27722" lon="6.7866">
        <ele>781.69</ele>
        <time>2015-08-11T16:44:37Z</time>
      </trkpt>
      <trkpt lat="47.27709" lon="6.78671">
        <ele>781.69</ele>
        <time>2015-08-11T16:44:45Z</time>
      </trkpt>
      <trkpt lat="47.2769" lon="6.78691">
        <ele>782.65</ele>
        <time>2015-08-11T16:44:58Z</time>
      </trkpt>
      <trkpt lat="47.27664" lon="6.78712">
        <ele>785.05</ele>
        <time>2015-08-11T16:45:14Z</time>
      </trkpt>
      <trkpt lat="47.27641" lon="6.78725">
        <ele>787.46</ele>
        <time>2015-08-11T16:45:29Z</time>
      </trkpt>
      <trkpt lat="47.27607" lon="6.7873">
        <ele>787.46</ele>
        <time>2015-08-11T16:45:46Z</time>
      </trkpt>
      <trkpt lat="47.27579" lon="6.78731">
        <ele>785.05</ele>
        <time>2015-08-11T16:45:59Z</time>
      </trkpt>
      <trkpt lat="47.2756" lon="6.78752">
        <ele>784.09</ele>
        <time>2015-08-11T16:46:11Z</time>
      </trkpt>
      <trkpt lat="47.27546" lon="6.78785">
        <ele>785.05</ele>
        <time>2015-08-11T16:46:25Z</time>
      </trkpt>
      <trkpt lat="47.2753" lon="6.78814">
        <ele>787.94</ele>
        <time>2015-08-11T16:46:38Z</time>
      </trkpt>
      <trkpt lat="47.27503" lon="6.78831">
        <ele>789.86</ele>
        <time>2015-08-11T16:46:51Z</time>
      </trkpt>
      <trkpt lat="47.27468" lon="6.78839">
        <ele>788.42</ele>
        <time>2015-08-11T16:47:06Z</time>
      </trkpt>
      <trkpt lat="47.27441" lon="6.7885">
        <ele>786.5</ele>
        <time>2015-08-11T16:47:18Z</time>
      </trkpt>
      <trkpt lat="47.27413" lon="6.78876">
        <ele>782.65</ele>
        <time>2015-08-11T16:47:32Z</time>
      </trkpt>
      <trkpt lat="47.27399" lon="6.78919">
        <ele>781.69</ele>
        <time>2015-08-11T16:47:47Z</time>
      </trkpt>
      <trkpt lat="47.27383" lon="6.78981">
        <ele>783.13</ele>
        <time>2015-08-11T16:48:07Z</time>
      </trkpt>
      <trkpt lat="47.27368" lon="6.79017">
        <ele>785.05</ele>
        <time>2015-08-11T16:48:20Z</time>
      </trkpt>
      <trkpt lat="47.2734" lon="6.7903">
        <ele>786.5</ele>
        <time>2015-08-11T16:48:34Z</time>
      </trkpt>
      <trkpt lat="47.27333" lon="6.79065">
        <ele>787.94</ele>
        <time>2015-08-11T16:48:47Z</time>
      </trkpt>
      <trkpt lat="47.27331" lon="6.79114">
        <ele>787.46</ele>
        <time>2015-08-11T16:49:03Z</time>
      </trkpt>
      <trkpt lat="47.27326" lon="6.79153">
        <ele>787.94</ele>
        <time>2015-08-11T16:49:18Z</time>
      </trkpt>
      <trkpt lat="47.2732" lon="6.79182">
        <ele>789.86</ele>
        <time>2015-08-11T16:49:30Z</time>
      </trkpt>
      <trkpt lat="47.273" lon="6.79209">
        <ele>794.19</ele>
        <time>2015-08-11T16:49:45Z</time>
      </trkpt>
      <trkpt lat="47.27267" lon="6.79213">
        <ele>795.15</ele>
        <time>2015-08-11T16:50:00Z</time>
      </trkpt>
      <trkpt lat="47.27233" lon="6.79201">
        <ele>793.71</ele>
        <time>2015-08-11T16:50:15Z</time>
      </trkpt>
      <trkpt lat="47.27205" lon="6.79214">
        <ele>792.26</ele>
        <time>2015-08-11T16:50:28Z</time>
      </trkpt>
      <trkpt lat="47.27183" lon="6.7924">
        <ele>789.38</ele>
        <time>2015-08-11T16:50:40Z</time>
      </trkpt>
      <trkpt lat="47.27159" lon="6.79268">
        <ele>783.61</ele>
        <time>2015-08-11T16:50:53Z</time>
      </trkpt>
      <trkpt lat="47.27136" lon="6.79296">
        <ele>781.69</ele>
        <time>2015-08-11T16:51:06Z</time>
      </trkpt>
      <trkpt lat="47.27112" lon="6.79333">
        <ele>777.84</ele>
        <time>2015-08-11T16:51:20Z</time>
      </trkpt>
      <trkpt lat="47.27093" lon="6.79384">
        <ele>773.52</ele>
        <time>2015-08-11T16:51:36Z</time>
      </trkpt>
      <trkpt lat="47.2709" lon="6.79389">
        <ele>772.56</ele>
        <time>2015-08-11T16:51:38Z</time>
      </trkpt>
      <trkpt lat="47.27083" lon="6.79416">
        <ele>769.19</ele>
        <time>2015-08-11T16:51:46Z</time>
      </trkpt>
      <trkpt lat="47.27087" lon="6.79445">
        <ele>765.83</ele>
        <time>2015-08-11T16:51:55Z</time>
      </trkpt>
      <trkpt lat="47.27095" lon="6.79491">
        <ele>764.87</ele>
        <time>2015-08-11T16:52:09Z</time>
      </trkpt>
      <trkpt lat="47.27095" lon="6.79536">
        <ele>764.87</ele>
        <time>2015-08-11T16:52:23Z</time>
      </trkpt>
      <trkpt lat="47.27098" lon="6.79578">
        <ele>766.31</ele>
        <time>2015-08-11T16:52:37Z</time>
      </trkpt>
      <trkpt lat="47.27099" lon="6.79618">
        <ele>767.75</ele>
        <time>2015-08-11T16:52:49Z</time>
      </trkpt>
      <trkpt lat="47.27099" lon="6.79659">
        <ele>771.11</ele>
        <time>2015-08-11T16:53:02Z</time>
      </trkpt>
      <trkpt lat="47.2709" lon="6.79698">
        <ele>774.48</ele>
        <time>2015-08-11T16:53:17Z</time>
      </trkpt>
      <trkpt lat="47.2709" lon="6.79747">
        <ele>774</ele>
        <time>2015-08-11T16:53:30Z</time>
      </trkpt>
      <trkpt lat="47.27083" lon="6.79795">
        <ele>770.63</ele>
        <time>2015-08-11T16:53:44Z</time>
      </trkpt>
      <trkpt lat="47.27066" lon="6.79845">
        <ele>768.71</ele>
        <time>2015-08-11T16:54:01Z</time>
      </trkpt>
      <trkpt lat="47.27057" lon="6.79892">
        <ele>765.83</ele>
        <time>2015-08-11T16:54:16Z</time>
      </trkpt>
      <trkpt lat="47.27055" lon="6.79935">
        <ele>764.87</ele>
        <time>2015-08-11T16:54:29Z</time>
      </trkpt>
      <trkpt lat="47.27054" lon="6.79982">
        <ele>763.42</ele>
        <time>2015-08-11T16:54:43Z</time>
      </trkpt>
      <trkpt lat="47.27056" lon="6.80027">
        <ele>761.98</ele>
        <time>2015-08-11T16:54:56Z</time>
      </trkpt>
      <trkpt lat="47.27059" lon="6.80065">
        <ele>758.62</ele>
        <time>2015-08-11T16:55:08Z</time>
      </trkpt>
      <trkpt lat="47.27069" lon="6.8011">
        <ele>757.18</ele>
        <time>2015-08-11T16:55:22Z</time>
      </trkpt>
      <trkpt lat="47.27078" lon="6.80149">
        <ele>755.73</ele>
        <time>2015-08-11T16:55:35Z</time>
      </trkpt>
      <trkpt lat="47.27087" lon="6.80183">
        <ele>755.25</ele>
        <time>2015-08-11T16:55:47Z</time>
      </trkpt>
      <trkpt lat="47.27097" lon="6.80213">
        <ele>756.21</ele>
        <time>2015-08-11T16:55:57Z</time>
      </trkpt>
      <trkpt lat="47.27106" lon="6.80246">
        <ele>758.62</ele>
        <time>2015-08-11T16:56:09Z</time>
      </trkpt>
      <trkpt lat="47.27114" lon="6.80278">
        <ele>759.1</ele>
        <time>2015-08-11T16:56:20Z</time>
      </trkpt>
      <trkpt lat="47.27122" lon="6.80318">
        <ele>758.62</ele>
        <time>2015-08-11T16:56:33Z</time>
      </trkpt>
      <trkpt lat="47.27132" lon="6.80356">
        <ele>759.1</ele>
        <time>2015-08-11T16:56:46Z</time>
      </trkpt>
      <trkpt lat="47.27145" lon="6.80393">
        <ele>758.14</ele>
        <time>2015-08-11T16:56:59Z</time>
      </trkpt>
      <trkpt lat="47.27157" lon="6.8042">
        <ele>757.66</ele>
        <time>2015-08-11T16:57:09Z</time>
      </trkpt>
      <trkpt lat="47.27167" lon="6.80465">
        <ele>758.14</ele>
        <time>2015-08-11T16:57:23Z</time>
      </trkpt>
      <trkpt lat="47.27172" lon="6.80507">
        <ele>761.5</ele>
        <time>2015-08-11T16:57:37Z</time>
      </trkpt>
      <trkpt lat="47.27173" lon="6.80518">
        <ele>762.94</ele>
        <time>2015-08-11T16:57:41Z</time>
      </trkpt>
      <trkpt lat="47.27179" lon="6.80533">
        <ele>763.42</ele>
        <time>2015-08-11T16:57:47Z</time>
      </trkpt>
      <trkpt lat="47.27186" lon="6.80575">
        <ele>764.39</ele>
        <time>2015-08-11T16:58:00Z</time>
      </trkpt>
      <trkpt lat="47.27185" lon="6.80609">
        <ele>766.79</ele>
        <time>2015-08-11T16:58:12Z</time>
      </trkpt>
      <trkpt lat="47.27186" lon="6.80648">
        <ele>766.79</ele>
        <time>2015-08-11T16:58:24Z</time>
      </trkpt>
      <trkpt lat="47.27191" lon="6.80688">
        <ele>766.79</ele>
        <time>2015-08-11T16:58:37Z</time>
      </trkpt>
      <trkpt lat="47.27194" lon="6.80732">
        <ele>766.79</ele>
        <time>2015-08-11T16:58:49Z</time>
      </trkpt>
      <trkpt lat="47.27197" lon="6.80772">
        <ele>765.83</ele>
        <time>2015-08-11T16:59:01Z</time>
      </trkpt>
      <trkpt lat="47.27198" lon="6.80809">
        <ele>766.31</ele>
        <time>2015-08-11T16:59:13Z</time>
      </trkpt>
      <trkpt lat="47.27199" lon="6.80849">
        <ele>765.83</ele>
        <time>2015-08-11T16:59:25Z</time>
      </trkpt>
      <trkpt lat="47.27199" lon="6.80886">
        <ele>766.79</ele>
        <time>2015-08-11T16:59:37Z</time>
      </trkpt>
      <trkpt lat="47.27201" lon="6.80926">
        <ele>767.27</ele>
        <time>2015-08-11T16:59:49Z</time>
      </trkpt>
      <trkpt lat="47.2721" lon="6.80966">
        <ele>764.39</ele>
        <time>2015-08-11T17:00:02Z</time>
      </trkpt>
      <trkpt lat="47.27221" lon="6.81001">
        <ele>762.46</ele>
        <time>2015-08-11T17:00:14Z</time>
      </trkpt>
      <trkpt lat="47.27235" lon="6.81032">
        <ele>761.5</ele>
        <time>2015-08-11T17:00:26Z</time>
      </trkpt>
      <trkpt lat="47.27251" lon="6.8106">
        <ele>759.58</ele>
        <time>2015-08-11T17:00:38Z</time>
      </trkpt>
      <trkpt lat="47.2727" lon="6.81092">
        <ele>757.66</ele>
        <time>2015-08-11T17:00:53Z</time>
      </trkpt>
      <trkpt lat="47.27286" lon="6.8112">
        <ele>756.21</ele>
        <time>2015-08-11T17:01:04Z</time>
      </trkpt>
      <trkpt lat="47.273" lon="6.81149">
        <ele>755.73</ele>
        <time>2015-08-11T17:01:16Z</time>
      </trkpt>
      <trkpt lat="47.27316" lon="6.81175">
        <ele>757.66</ele>
        <time>2015-08-11T17:01:28Z</time>
      </trkpt>
      <trkpt lat="47.27338" lon="6.81195">
        <ele>758.62</ele>
        <time>2015-08-11T17:01:41Z</time>
      </trkpt>
      <trkpt lat="47.27359" lon="6.81213">
        <ele>759.58</ele>
        <time>2015-08-11T17:01:53Z</time>
      </trkpt>
      <trkpt lat="47.27381" lon="6.8124">
        <ele>762.46</ele>
        <time>2015-08-11T17:02:07Z</time>
      </trkpt>
      <trkpt lat="47.27399" lon="6.81266">
        <ele>763.42</ele>
        <time>2015-08-11T17:02:20Z</time>
      </trkpt>
      <trkpt lat="47.27417" lon="6.81291">
        <ele>763.9</ele>
        <time>2015-08-11T17:02:33Z</time>
      </trkpt>
      <trkpt lat="47.27432" lon="6.81313">
        <ele>762.46</ele>
        <time>2015-08-11T17:02:45Z</time>
      </trkpt>
      <trkpt lat="47.27448" lon="6.81341">
        <ele>762.46</ele>
        <time>2015-08-11T17:02:58Z</time>
      </trkpt>
      <trkpt lat="47.27464" lon="6.81373">
        <ele>763.42</ele>
        <time>2015-08-11T17:03:12Z</time>
      </trkpt>
      <trkpt lat="47.27478" lon="6.81399">
        <ele>764.87</ele>
        <time>2015-08-11T17:03:23Z</time>
      </trkpt>
      <trkpt lat="47.27489" lon="6.81409">
        <ele>763.9</ele>
        <time>2015-08-11T17:03:30Z</time>
      </trkpt>
      <trkpt lat="47.27516" lon="6.81419">
        <ele>761.98</ele>
        <time>2015-08-11T17:03:42Z</time>
      </trkpt>
      <trkpt lat="47.27529" lon="6.8142">
        <ele>761.5</ele>
        <time>2015-08-11T17:03:49Z</time>
      </trkpt>
      <trkpt lat="47.27553" lon="6.81416">
        <ele>762.46</ele>
        <time>2015-08-11T17:04:01Z</time>
      </trkpt>
      <trkpt lat="47.27555" lon="6.81415">
        <ele>762.46</ele>
        <time>2015-08-11T17:04:02Z</time>
      </trkpt>
      <trkpt lat="47.27578" lon="6.81415">
        <ele>763.9</ele>
        <time>2015-08-11T17:04:14Z</time>
      </trkpt>
      <trkpt lat="47.27602" lon="6.8141">
        <ele>765.83</ele>
        <time>2015-08-11T17:04:28Z</time>
      </trkpt>
      <trkpt lat="47.27612" lon="6.81407">
        <ele>768.23</ele>
        <time>2015-08-11T17:04:34Z</time>
      </trkpt>
      <trkpt lat="47.27633" lon="6.81385">
        <ele>770.63</ele>
        <time>2015-08-11T17:04:49Z</time>
      </trkpt>
      <trkpt lat="47.27648" lon="6.81365">
        <ele>773.52</ele>
        <time>2015-08-11T17:05:02Z</time>
      </trkpt>
      <trkpt lat="47.27649" lon="6.81328">
        <ele>777.84</ele>
        <time>2015-08-11T17:05:15Z</time>
      </trkpt>
      <trkpt lat="47.27649" lon="6.81293">
        <ele>783.61</ele>
        <time>2015-08-11T17:05:29Z</time>
      </trkpt>
      <trkpt lat="47.2765" lon="6.81284">
        <ele>786.02</ele>
        <time>2015-08-11T17:05:33Z</time>
      </trkpt>
      <trkpt lat="47.27648" lon="6.81247">
        <ele>791.3</ele>
        <time>2015-08-11T17:05:48Z</time>
      </trkpt>
      <trkpt lat="47.27649" lon="6.81241">
        <ele>790.82</ele>
        <time>2015-08-11T17:05:50Z</time>
      </trkpt>
      <trkpt lat="47.27649" lon="6.8123">
        <ele>789.38</ele>
        <time>2015-08-11T17:05:53Z</time>
      </trkpt>
      <trkpt lat="47.27654" lon="6.81214">
        <ele>787.46</ele>
        <time>2015-08-11T17:05:58Z</time>
      </trkpt>
      <trkpt lat="47.27656" lon="6.81206">
        <ele>786.5</ele>
        <time>2015-08-11T17:06:01Z</time>
      </trkpt>
      <trkpt lat="47.27666" lon="6.81182">
        <ele>785.05</ele>
        <time>2015-08-11T17:06:12Z</time>
      </trkpt>
      <trkpt lat="47.27686" lon="6.81153">
        <ele>783.13</ele>
        <time>2015-08-11T17:06:26Z</time>
      </trkpt>
      <trkpt lat="47.27709" lon="6.81135">
        <ele>778.32</ele>
        <time>2015-08-11T17:06:39Z</time>
      </trkpt>
      <trkpt lat="47.27729" lon="6.8113">
        <ele>776.88</ele>
        <time>2015-08-11T17:06:50Z</time>
      </trkpt>
      <trkpt lat="47.27752" lon="6.81117">
        <ele>777.36</ele>
        <time>2015-08-11T17:07:05Z</time>
      </trkpt>
      <trkpt lat="47.27761" lon="6.81092">
        <ele>778.81</ele>
        <time>2015-08-11T17:07:17Z</time>
      </trkpt>
      <trkpt lat="47.27763" lon="6.81062">
        <ele>780.25</ele>
        <time>2015-08-11T17:07:30Z</time>
      </trkpt>
      <trkpt lat="47.27768" lon="6.81032">
        <ele>782.17</ele>
        <time>2015-08-11T17:07:44Z</time>
      </trkpt>
      <trkpt lat="47.27772" lon="6.81">
        <ele>784.09</ele>
        <time>2015-08-11T17:07:58Z</time>
      </trkpt>
      <trkpt lat="47.27775" lon="6.80966">
        <ele>785.05</ele>
        <time>2015-08-11T17:08:13Z</time>
      </trkpt>
      <trkpt lat="47.27779" lon="6.80931">
        <ele>785.53</ele>
        <time>2015-08-11T17:08:28Z</time>
      </trkpt>
      <trkpt lat="47.27783" lon="6.809">
        <ele>788.9</ele>
        <time>2015-08-11T17:08:42Z</time>
      </trkpt>
      <trkpt lat="47.27786" lon="6.80871">
        <ele>791.78</ele>
        <time>2015-08-11T17:08:56Z</time>
      </trkpt>
      <trkpt lat="47.27788" lon="6.80865">
        <ele>792.74</ele>
        <time>2015-08-11T17:08:59Z</time>
      </trkpt>
      <trkpt lat="47.27789" lon="6.80853">
        <ele>793.71</ele>
        <time>2015-08-11T17:09:05Z</time>
      </trkpt>
      <trkpt lat="47.2779" lon="6.80844">
        <ele>794.67</ele>
        <time>2015-08-11T17:09:09Z</time>
      </trkpt>
      <trkpt lat="47.27791" lon="6.80833">
        <ele>796.59</ele>
        <time>2015-08-11T17:09:14Z</time>
      </trkpt>
      <trkpt lat="47.27795" lon="6.80802">
        <ele>797.07</ele>
        <time>2015-08-11T17:09:29Z</time>
      </trkpt>
      <trkpt lat="47.27799" lon="6.80772">
        <ele>795.15</ele>
        <time>2015-08-11T17:09:43Z</time>
      </trkpt>
      <trkpt lat="47.27804" lon="6.80741">
        <ele>796.59</ele>
        <time>2015-08-11T17:09:58Z</time>
      </trkpt>
      <trkpt lat="47.27802" lon="6.80713">
        <ele>800.44</ele>
        <time>2015-08-11T17:10:12Z</time>
      </trkpt>
      <trkpt lat="47.2779" lon="6.80694">
        <ele>804.76</ele>
        <time>2015-08-11T17:10:26Z</time>
      </trkpt>
      <trkpt lat="47.27789" lon="6.80693">
        <ele>805.24</ele>
        <time>2015-08-11T17:10:27Z</time>
      </trkpt>
      <trkpt lat="47.27788" lon="6.80687">
        <ele>807.16</ele>
        <time>2015-08-11T17:10:31Z</time>
      </trkpt>
      <trkpt lat="47.27788" lon="6.80683">
        <ele>808.61</ele>
        <time>2015-08-11T17:10:33Z</time>
      </trkpt>
      <trkpt lat="47.27782" lon="6.80671">
        <ele>812.93</ele>
        <time>2015-08-11T17:10:41Z</time>
      </trkpt>
      <trkpt lat="47.27768" lon="6.80668">
        <ele>821.58</ele>
        <time>2015-08-11T17:10:56Z</time>
      </trkpt>
      <trkpt lat="47.27746" lon="6.80669">
        <ele>830.72</ele>
        <time>2015-08-11T17:11:11Z</time>
      </trkpt>
      <trkpt lat="47.27701" lon="6.80667">
        <ele>843.21</ele>
        <time>2015-08-11T17:11:27Z</time>
      </trkpt>
      <trkpt lat="47.27666" lon="6.8066">
        <ele>848.98</ele>
        <time>2015-08-11T17:11:43Z</time>
      </trkpt>
      <trkpt lat="47.27634" lon="6.80654">
        <ele>854.75</ele>
        <time>2015-08-11T17:11:59Z</time>
      </trkpt>
      <trkpt lat="47.27608" lon="6.80649">
        <ele>859.08</ele>
        <time>2015-08-11T17:12:12Z</time>
      </trkpt>
      <trkpt lat="47.27576" lon="6.80628">
        <ele>849.94</ele>
        <time>2015-08-11T17:12:26Z</time>
      </trkpt>
      <trkpt lat="47.27554" lon="6.80591">
        <ele>833.12</ele>
        <time>2015-08-11T17:12:40Z</time>
      </trkpt>
      <trkpt lat="47.27557" lon="6.80552">
        <ele>823.99</ele>
        <time>2015-08-11T17:12:54Z</time>
      </trkpt>
      <trkpt lat="47.27567" lon="6.80516">
        <ele>817.74</ele>
        <time>2015-08-11T17:13:08Z</time>
      </trkpt>
      <trkpt lat="47.27564" lon="6.80493">
        <ele>817.26</ele>
        <time>2015-08-11T17:13:22Z</time>
      </trkpt>
      <trkpt lat="47.27559" lon="6.80487">
        <ele>817.74</ele>
        <time>2015-08-11T17:13:37Z</time>
      </trkpt>
      <trkpt lat="47.27558" lon="6.80486">
        <ele>814.85</ele>
        <time>2015-08-11T17:13:53Z</time>
      </trkpt>
    </trkseg>
  </trk>
</gpx>